createdAt,value
2023-04-02T00:03:22.197Z,9.60
2023-04-02T00:08:27.432Z,8.35
2023-04-02T00:13:34.236Z,9.00
2023-04-02T00:18:40.087Z,8.70
2023-04-02T00:23:44.048Z,8.07
2023-04-02T00:28:48.553Z,7.50
2023-04-02T00:33:51.693Z,7.53
2023-04-02T00:38:56.394Z,6.18
2023-04-02T00:44:01.456Z,6.95
2023-04-02T00:49:09.096Z,6.97
2023-04-02T00:54:15.994Z,7.65
2023-04-02T00:59:23.652Z,7.45
2023-04-02T01:04:32.686Z,8.23
2023-04-02T01:09:46.146Z,8.25
2023-04-02T01:14:53.452Z,8.20
2023-04-02T01:20:07.480Z,7.93
2023-04-02T01:25:15.452Z,7.35
2023-04-02T01:30:20.351Z,8.40
2023-04-02T01:35:24.817Z,7.93
2023-04-02T01:40:32.334Z,7.50
2023-04-02T01:45:37.372Z,7.93
2023-04-02T01:50:42.040Z,7.45
2023-04-02T01:55:47.210Z,7.38
2023-04-02T02:00:54.105Z,7.63
2023-04-02T02:05:57.871Z,7.93
2023-04-02T02:11:01.278Z,8.25
2023-04-02T02:16:06.213Z,8.95
2023-04-02T02:21:10.694Z,8.77
2023-04-02T02:26:14.639Z,8.15
2023-04-02T02:31:20.731Z,8.13
2023-04-02T02:36:28.052Z,9.68
2023-04-02T02:41:36.648Z,11.48
2023-04-02T02:46:45.534Z,11.00
2023-04-02T02:51:54.008Z,11.20
2023-04-02T02:57:07.294Z,10.38
2023-04-02T03:02:12.155Z,10.65
2023-04-02T03:07:16.250Z,10.00
2023-04-02T03:12:32.270Z,8.63
2023-04-02T03:17:38.737Z,8.48
2023-04-02T03:22:45.299Z,7.65
2023-04-02T03:27:50.620Z,7.10
2023-04-02T03:32:58.139Z,6.95
2023-04-02T03:38:03.276Z,6.53
2023-04-02T03:43:13.301Z,7.10
2023-04-02T03:48:20.831Z,6.65
2023-04-02T03:53:24.549Z,6.70
2023-04-02T03:58:29.836Z,6.47
2023-04-02T04:03:40.022Z,9.48
2023-04-02T04:08:46.583Z,9.00
2023-04-02T04:13:53.630Z,8.77
2023-04-02T04:19:03.621Z,10.05
2023-04-02T04:24:15.944Z,10.05
2023-04-02T04:29:27.156Z,9.18
2023-04-02T04:34:42.289Z,7.82
2023-04-02T04:39:48.149Z,7.85
2023-04-02T04:44:56.467Z,8.13
2023-04-02T04:50:03.922Z,7.65
2023-04-02T04:55:23.406Z,6.85
2023-04-02T05:00:29.743Z,6.05
2023-04-02T05:05:37.744Z,5.70
2023-04-02T05:10:45.218Z,4.63
2023-04-02T05:15:54.001Z,4.47
2023-04-02T05:21:02.287Z,4.68
2023-04-02T05:26:08.519Z,4.45
2023-04-02T05:31:15.504Z,4.32
2023-04-02T05:36:23.884Z,3.65
2023-04-02T05:41:32.795Z,3.42
2023-04-02T05:46:44.673Z,3.17
2023-04-02T05:51:51.741Z,3.50
2023-04-02T05:56:57.373Z,3.65
2023-04-02T06:02:03.849Z,3.05
2023-04-02T06:07:17.668Z,3.85
2023-04-02T06:12:28.500Z,3.00
2023-04-02T06:17:34.704Z,2.83
2023-04-02T06:22:40.483Z,2.65
2023-04-02T06:27:46.563Z,2.70
2023-04-02T06:32:54.935Z,1.98
2023-04-02T06:38:02.329Z,2.50
2023-04-02T06:43:12.897Z,2.50
2023-04-02T06:48:57.824Z,2.42
2023-04-02T06:54:02.442Z,2.28
2023-04-02T06:59:07.485Z,1.85
2023-04-02T07:04:11.483Z,2.60
2023-04-02T07:09:22.074Z,2.10
2023-04-02T07:14:29.571Z,2.40
2023-04-02T07:19:33.334Z,2.60
2023-04-02T07:24:37.930Z,2.25
2023-04-02T07:29:42.993Z,14.88
2023-04-02T07:34:46.103Z,2.63
2023-04-02T07:39:50.954Z,2.75
2023-04-02T07:44:54.124Z,2.95
2023-04-02T07:49:57.212Z,2.97
2023-04-02T07:55:02.037Z,2.70
2023-04-02T08:00:07.552Z,2.58
2023-04-02T08:05:15.605Z,2.47
2023-04-02T08:10:20.699Z,3.63
2023-04-02T08:15:23.863Z,2.97
2023-04-02T08:20:27.405Z,3.28
2023-04-02T08:25:31.906Z,2.92
2023-04-02T08:30:35.093Z,2.65
2023-04-02T08:35:38.601Z,2.40
2023-04-02T08:40:44.221Z,2.30
2023-04-02T08:45:53.928Z,2.17
2023-04-02T08:50:58.930Z,2.83
2023-04-02T08:56:08.605Z,2.60
2023-04-02T09:01:17.521Z,2.45
2023-04-02T09:06:21.372Z,2.80
2023-04-02T09:11:27.312Z,2.92
2023-04-02T09:16:40.566Z,4.00
2023-04-02T09:21:45.874Z,3.33
2023-04-02T09:26:50.397Z,3.38
2023-04-02T09:31:57.439Z,3.55
2023-04-02T09:37:07.914Z,2.78
2023-04-02T09:42:30.071Z,2.55
2023-04-02T09:47:33.235Z,2.67
2023-04-02T09:52:36.505Z,2.80
2023-04-02T09:57:41.273Z,2.80
2023-04-02T10:02:45.016Z,14.13
2023-04-02T10:07:49.060Z,2.67
2023-04-02T10:12:57.844Z,3.10
2023-04-02T10:18:04.580Z,2.33
2023-04-02T10:23:11.446Z,2.10
2023-04-02T10:28:19.931Z,2.30
2023-04-02T10:33:26.464Z,2.13
2023-04-02T10:38:33.752Z,1.90
2023-04-02T10:43:44.969Z,2.00
2023-04-02T10:48:52.455Z,2.00
2023-04-02T10:53:58.436Z,1.77
2023-04-02T10:59:04.458Z,2.38
2023-04-02T11:04:09.825Z,1.90
2023-04-02T11:09:16.420Z,1.95
2023-04-02T11:14:23.654Z,2.15
2023-04-02T11:19:27.908Z,3.15
2023-04-02T11:24:38.739Z,1.85
2023-04-02T11:29:44.588Z,1.90
2023-04-02T11:35:06.470Z,1.67
2023-04-02T11:40:25.570Z,2.53
2023-04-02T11:45:52.635Z,1.88
2023-04-02T11:50:58.726Z,1.95
2023-04-02T11:56:18.267Z,2.10
2023-04-02T12:01:45.501Z,2.08
2023-04-02T12:06:54.843Z,1.95
2023-04-02T12:12:00.142Z,2.53
2023-04-02T12:17:06.329Z,1.83
2023-04-02T12:22:16.312Z,1.80
2023-04-02T12:27:22.710Z,1.77
2023-04-02T12:32:29.451Z,2.00
2023-04-02T12:37:34.404Z,1.77
2023-04-02T12:42:38.149Z,2.13
2023-04-02T12:47:45.560Z,1.88
2023-04-02T12:52:51.225Z,2.30
2023-04-02T12:57:56.552Z,2.63
2023-04-02T13:03:01.722Z,1.80
2023-04-02T13:08:06.821Z,1.50
2023-04-02T13:13:16.092Z,1.63
2023-04-02T13:18:20.056Z,1.48
2023-04-02T13:23:32.923Z,2.00
2023-04-02T13:28:36.061Z,1.55
2023-04-02T13:33:39.171Z,1.73
2023-04-02T13:38:43.990Z,1.55
2023-04-02T13:43:47.069Z,1.85
2023-04-02T13:48:50.573Z,1.85
2023-04-02T13:53:56.245Z,1.52
2023-04-02T13:58:59.334Z,2.28
2023-04-02T14:04:03.392Z,1.38
2023-04-02T14:09:12.073Z,1.85
2023-04-02T14:14:24.661Z,2.28
2023-04-02T14:19:35.231Z,1.40
2023-04-02T14:24:46.026Z,1.60
2023-04-02T14:29:51.974Z,1.83
2023-04-02T14:34:58.654Z,1.98
2023-04-02T14:40:09.887Z,1.50
2023-04-02T14:45:16.033Z,1.42
2023-04-02T14:50:20.724Z,1.55
2023-04-02T14:55:28.395Z,1.58
2023-04-02T15:00:33.986Z,1.90
2023-04-02T15:05:41.336Z,1.42
2023-04-02T15:10:50.020Z,1.50
2023-04-02T15:15:55.922Z,1.80
2023-04-02T15:21:03.396Z,1.42
2023-04-02T15:26:12.796Z,1.52
2023-04-02T15:31:16.063Z,1.30
2023-04-02T15:36:29.664Z,1.63
2023-04-02T15:41:39.073Z,1.55
2023-04-02T15:46:45.549Z,1.30
2023-04-02T15:51:54.687Z,1.73
2023-04-02T15:57:04.015Z,1.60
2023-04-02T16:02:17.129Z,1.20
2023-04-02T16:07:25.219Z,1.10
2023-04-02T16:12:30.353Z,1.20
2023-04-02T16:17:37.990Z,1.50
2023-04-02T16:22:57.209Z,1.35
2023-04-02T16:28:09.175Z,0.93
2023-04-02T16:33:19.579Z,1.02
2023-04-02T16:38:28.441Z,0.90
2023-04-02T16:43:34.859Z,1.00
2023-04-02T16:48:43.067Z,1.25
2023-04-02T16:54:01.386Z,1.05
2023-04-02T16:59:14.829Z,1.75
2023-04-02T17:04:27.294Z,1.25
2023-04-02T17:09:35.203Z,1.42
2023-04-02T17:14:43.264Z,1.20
2023-04-02T17:19:46.400Z,1.08
2023-04-02T17:24:53.803Z,1.50
2023-04-02T17:30:01.142Z,1.20
2023-04-02T17:35:16.935Z,1.10
2023-04-02T17:40:24.924Z,1.33
2023-04-02T17:45:33.817Z,1.13
2023-04-02T17:50:46.185Z,1.40
2023-04-02T17:55:54.777Z,1.20
2023-04-02T18:01:07.500Z,1.55
2023-04-02T18:06:12.636Z,1.60
2023-04-02T18:11:21.692Z,1.73
2023-04-02T18:16:36.406Z,1.42
2023-04-02T18:21:44.233Z,1.30
2023-04-02T18:26:51.189Z,1.38
2023-04-02T18:32:00.902Z,1.50
2023-04-02T18:37:09.219Z,1.40
2023-04-02T18:42:16.915Z,1.75
2023-04-02T18:47:24.707Z,1.63
2023-04-02T18:52:28.477Z,1.70
2023-04-02T18:57:33.943Z,1.77
2023-04-02T19:02:43.351Z,2.08
2023-04-02T19:07:48.229Z,2.30
2023-04-02T19:12:51.378Z,2.53
2023-04-02T19:18:05.108Z,3.38
2023-04-02T19:23:13.743Z,2.30
2023-04-02T19:28:23.404Z,2.33
2023-04-02T19:33:34.028Z,3.10
2023-04-02T19:38:50.042Z,2.92
2023-04-02T19:43:53.145Z,2.85
2023-04-02T19:49:03.060Z,2.42
2023-04-02T19:54:06.286Z,3.13
2023-04-02T19:59:17.666Z,3.10
2023-04-02T20:04:22.906Z,3.00
2023-04-02T20:09:26.210Z,2.83
2023-04-02T20:14:29.322Z,2.67
2023-04-02T20:19:33.775Z,2.78
2023-04-02T20:24:36.904Z,3.08
2023-04-02T20:29:42.294Z,2.50
2023-04-02T20:34:47.130Z,2.80
2023-04-02T20:39:50.282Z,2.90
2023-04-02T20:44:53.437Z,3.08
2023-04-02T20:49:57.897Z,2.97
2023-04-02T20:55:01.554Z,3.13
2023-04-02T21:00:06.146Z,3.17
2023-04-02T21:05:10.962Z,3.00
2023-04-02T21:10:14.171Z,3.03
2023-04-02T21:15:17.455Z,2.95
2023-04-02T21:20:21.988Z,6.93
2023-04-02T21:25:25.124Z,2.40
2023-04-02T21:30:28.284Z,2.55
2023-04-02T21:35:32.772Z,1.67
2023-04-02T21:40:35.874Z,2.05
2023-04-02T21:45:39.003Z,2.00
2023-04-02T21:50:43.450Z,1.80
2023-04-02T21:55:46.632Z,1.80
2023-04-02T22:00:49.885Z,2.03
2023-04-02T22:06:02.520Z,1.80
2023-04-02T22:11:06.674Z,1.98
2023-04-02T22:16:11.563Z,1.45
2023-04-02T22:21:16.604Z,1.60
2023-04-02T22:26:20.763Z,1.83
2023-04-02T22:31:24.887Z,1.90
2023-04-02T22:36:29.960Z,1.70
2023-04-02T22:41:33.316Z,1.77
2023-04-02T22:46:36.470Z,1.48
2023-04-02T22:51:40.934Z,1.88
2023-04-02T22:56:44.016Z,1.40
2023-04-02T23:01:47.291Z,1.67
2023-04-02T23:06:51.808Z,1.70
2023-04-02T23:11:55.135Z,1.85
2023-04-02T23:16:58.168Z,1.70
2023-04-02T23:22:02.593Z,1.52
2023-04-02T23:27:05.694Z,1.65
2023-04-02T23:32:08.763Z,2.83
2023-04-02T23:37:13.197Z,1.50
2023-04-02T23:42:16.301Z,1.33
2023-04-02T23:47:19.375Z,1.40
2023-04-02T23:52:23.805Z,1.45
2023-04-02T23:57:26.996Z,2.00
